sensor_id;sensor_type;location;lat;lon;timestamp;P1;durP1;ratioP1;P2;durP2;ratioP2
19671;SDS011;9983;51.114;13.788;2023-07-31T00:00:29;4.43;;;3.10;;
19671;SDS011;9983;51.114;13.788;2023-07-31T00:05:29;3.75;;;2.72;;
19671;SDS011;9983;51.114;13.788;2023-07-31T00:10:29;3.85;;;3.08;;
19671;SDS011;9983;51.114;13.788;2023-07-31T00:15:29;3.40;;;2.28;;
19671;SDS011;9983;51.114;13.788;2023-07-31T00:20:30;3.90;;;2.28;;
19671;SDS011;9983;51.114;13.788;2023-07-31T00:25:30;4.68;;;2.50;;
19671;SDS011;9983;51.114;13.788;2023-07-31T00:30:30;2.60;;;2.20;;
19671;SDS011;9983;51.114;13.788;2023-07-31T00:35:30;2.17;;;1.92;;
19671;SDS011;9983;51.114;13.788;2023-07-31T00:40:34;2.30;;;2.00;;
19671;SDS011;9983;51.114;13.788;2023-07-31T00:45:36;2.47;;;2.28;;
19671;SDS011;9983;51.114;13.788;2023-07-31T00:50:36;2.58;;;2.38;;
19671;SDS011;9983;51.114;13.788;2023-07-31T00:55:37;2.63;;;2.35;;
19671;SDS011;9983;51.114;13.788;2023-07-31T01:00:38;2.95;;;2.45;;
19671;SDS011;9983;51.114;13.788;2023-07-31T01:11:16;3.30;;;2.90;;
19671;SDS011;9983;51.114;13.788;2023-07-31T01:16:21;5.22;;;2.88;;
19671;SDS011;9983;51.114;13.788;2023-07-31T01:26:23;7.07;;;3.40;;
19671;SDS011;9983;51.114;13.788;2023-07-31T01:31:29;3.22;;;2.53;;
19671;SDS011;9983;51.114;13.788;2023-07-31T01:36:31;2.83;;;2.63;;
19671;SDS011;9983;51.114;13.788;2023-07-31T01:41:31;4.22;;;2.63;;
19671;SDS011;9983;51.114;13.788;2023-07-31T01:46:32;3.47;;;2.87;;
19671;SDS011;9983;51.114;13.788;2023-07-31T01:51:32;3.83;;;2.58;;
19671;SDS011;9983;51.114;13.788;2023-07-31T01:56:35;3.58;;;2.60;;
19671;SDS011;9983;51.114;13.788;2023-07-31T02:01:35;2.53;;;2.33;;
19671;SDS011;9983;51.114;13.788;2023-07-31T02:06:35;4.95;;;2.42;;
19671;SDS011;9983;51.114;13.788;2023-07-31T02:11:36;3.00;;;2.60;;
19671;SDS011;9983;51.114;13.788;2023-07-31T02:16:36;4.00;;;2.13;;
19671;SDS011;9983;51.114;13.788;2023-07-31T02:21:36;6.35;;;2.10;;
19671;SDS011;9983;51.114;13.788;2023-07-31T02:26:36;3.97;;;2.10;;
19671;SDS011;9983;51.114;13.788;2023-07-31T02:31:37;3.72;;;2.20;;
19671;SDS011;9983;51.114;13.788;2023-07-31T02:36:37;4.05;;;1.92;;
19671;SDS011;9983;51.114;13.788;2023-07-31T02:41:37;3.47;;;2.00;;
19671;SDS011;9983;51.114;13.788;2023-07-31T02:46:38;3.90;;;2.17;;
19671;SDS011;9983;51.114;13.788;2023-07-31T02:51:38;4.82;;;2.38;;
19671;SDS011;9983;51.114;13.788;2023-07-31T02:56:38;4.55;;;2.53;;
19671;SDS011;9983;51.114;13.788;2023-07-31T03:01:38;3.13;;;2.28;;
19671;SDS011;9983;51.114;13.788;2023-07-31T03:06:39;2.30;;;1.92;;
19671;SDS011;9983;51.114;13.788;2023-07-31T03:11:39;4.88;;;2.35;;
19671;SDS011;9983;51.114;13.788;2023-07-31T03:16:39;4.13;;;2.30;;
19671;SDS011;9983;51.114;13.788;2023-07-31T03:21:39;3.55;;;2.50;;
19671;SDS011;9983;51.114;13.788;2023-07-31T03:26:40;6.20;;;2.17;;
19671;SDS011;9983;51.114;13.788;2023-07-31T03:31:41;4.43;;;2.20;;
19671;SDS011;9983;51.114;13.788;2023-07-31T03:36:41;3.53;;;2.45;;
19671;SDS011;9983;51.114;13.788;2023-07-31T03:41:42;4.47;;;1.73;;
19671;SDS011;9983;51.114;13.788;2023-07-31T03:46:42;3.58;;;2.03;;
19671;SDS011;9983;51.114;13.788;2023-07-31T03:51:42;3.43;;;1.97;;
19671;SDS011;9983;51.114;13.788;2023-07-31T03:56:43;2.42;;;1.58;;
19671;SDS011;9983;51.114;13.788;2023-07-31T04:01:43;5.25;;;1.88;;
19671;SDS011;9983;51.114;13.788;2023-07-31T04:06:43;2.28;;;1.70;;
19671;SDS011;9983;51.114;13.788;2023-07-31T04:11:43;3.60;;;1.90;;
19671;SDS011;9983;51.114;13.788;2023-07-31T04:16:44;3.95;;;2.10;;
19671;SDS011;9983;51.114;13.788;2023-07-31T04:21:44;3.15;;;1.83;;
19671;SDS011;9983;51.114;13.788;2023-07-31T04:26:44;3.83;;;2.20;;
19671;SDS011;9983;51.114;13.788;2023-07-31T04:31:45;2.63;;;2.10;;
19671;SDS011;9983;51.114;13.788;2023-07-31T04:36:45;6.13;;;2.95;;
19671;SDS011;9983;51.114;13.788;2023-07-31T04:41:45;5.33;;;2.77;;
19671;SDS011;9983;51.114;13.788;2023-07-31T04:46:45;4.97;;;2.45;;
19671;SDS011;9983;51.114;13.788;2023-07-31T04:51:46;4.50;;;3.40;;
19671;SDS011;9983;51.114;13.788;2023-07-31T04:56:46;4.83;;;3.00;;
19671;SDS011;9983;51.114;13.788;2023-07-31T05:01:47;4.47;;;2.70;;
19671;SDS011;9983;51.114;13.788;2023-07-31T05:06:47;3.85;;;2.95;;
19671;SDS011;9983;51.114;13.788;2023-07-31T05:11:48;3.83;;;3.07;;
19671;SDS011;9983;51.114;13.788;2023-07-31T05:16:48;5.10;;;2.80;;
19671;SDS011;9983;51.114;13.788;2023-07-31T05:21:48;5.28;;;3.00;;
19671;SDS011;9983;51.114;13.788;2023-07-31T05:26:48;4.30;;;2.95;;
19671;SDS011;9983;51.114;13.788;2023-07-31T05:31:49;4.15;;;3.10;;
19671;SDS011;9983;51.114;13.788;2023-07-31T05:36:49;4.25;;;2.90;;
19671;SDS011;9983;51.114;13.788;2023-07-31T05:41:49;4.93;;;3.13;;
19671;SDS011;9983;51.114;13.788;2023-07-31T05:46:49;4.82;;;3.20;;
19671;SDS011;9983;51.114;13.788;2023-07-31T05:51:50;5.93;;;3.00;;
19671;SDS011;9983;51.114;13.788;2023-07-31T05:56:50;6.28;;;2.70;;
19671;SDS011;9983;51.114;13.788;2023-07-31T06:01:50;3.55;;;2.75;;
19671;SDS011;9983;51.114;13.788;2023-07-31T06:06:51;5.13;;;3.10;;
19671;SDS011;9983;51.114;13.788;2023-07-31T06:11:52;5.63;;;2.95;;
19671;SDS011;9983;51.114;13.788;2023-07-31T06:16:52;4.00;;;2.70;;
19671;SDS011;9983;51.114;13.788;2023-07-31T06:21:52;2.88;;;2.60;;
19671;SDS011;9983;51.114;13.788;2023-07-31T06:26:53;5.35;;;2.70;;
19671;SDS011;9983;51.114;13.788;2023-07-31T06:31:53;4.45;;;2.55;;
19671;SDS011;9983;51.114;13.788;2023-07-31T06:36:53;3.28;;;2.38;;
19671;SDS011;9983;51.114;13.788;2023-07-31T06:41:53;4.10;;;2.45;;
19671;SDS011;9983;51.114;13.788;2023-07-31T06:46:54;3.38;;;2.20;;
19671;SDS011;9983;51.114;13.788;2023-07-31T06:51:54;3.97;;;2.45;;
19671;SDS011;9983;51.114;13.788;2023-07-31T06:56:54;4.93;;;2.60;;
19671;SDS011;9983;51.114;13.788;2023-07-31T07:01:55;4.72;;;2.03;;
19671;SDS011;9983;51.114;13.788;2023-07-31T07:06:55;4.70;;;2.63;;
19671;SDS011;9983;51.114;13.788;2023-07-31T07:11:55;6.43;;;2.50;;
19671;SDS011;9983;51.114;13.788;2023-07-31T07:16:55;3.05;;;2.78;;
19671;SDS011;9983;51.114;13.788;2023-07-31T07:21:56;2.42;;;2.22;;
19671;SDS011;9983;51.114;13.788;2023-07-31T07:26:56;2.97;;;2.42;;
19671;SDS011;9983;51.114;13.788;2023-07-31T07:31:56;5.07;;;2.72;;
19671;SDS011;9983;51.114;13.788;2023-07-31T07:36:56;6.22;;;2.70;;
19671;SDS011;9983;51.114;13.788;2023-07-31T07:41:57;4.37;;;2.70;;
19671;SDS011;9983;51.114;13.788;2023-07-31T07:46:57;3.80;;;2.58;;
19671;SDS011;9983;51.114;13.788;2023-07-31T07:51:57;3.75;;;2.30;;
19671;SDS011;9983;51.114;13.788;2023-07-31T07:56:58;2.53;;;2.20;;
19671;SDS011;9983;51.114;13.788;2023-07-31T08:01:59;5.72;;;2.30;;
19671;SDS011;9983;51.114;13.788;2023-07-31T08:06:59;3.80;;;2.00;;
19671;SDS011;9983;51.114;13.788;2023-07-31T08:11:59;4.15;;;2.10;;
19671;SDS011;9983;51.114;13.788;2023-07-31T08:17:03;6.63;;;2.40;;
19671;SDS011;9983;51.114;13.788;2023-07-31T08:22:04;3.53;;;2.38;;
19671;SDS011;9983;51.114;13.788;2023-07-31T08:27:05;4.07;;;2.40;;
19671;SDS011;9983;51.114;13.788;2023-07-31T08:32:06;3.08;;;2.10;;
19671;SDS011;9983;51.114;13.788;2023-07-31T08:37:06;3.70;;;2.35;;
19671;SDS011;9983;51.114;13.788;2023-07-31T08:42:10;2.92;;;2.10;;
19671;SDS011;9983;51.114;13.788;2023-07-31T08:47:10;2.42;;;1.75;;
19671;SDS011;9983;51.114;13.788;2023-07-31T08:52:11;4.22;;;2.13;;
19671;SDS011;9983;51.114;13.788;2023-07-31T08:57:11;1.98;;;1.77;;
19671;SDS011;9983;51.114;13.788;2023-07-31T09:02:12;3.20;;;2.00;;
19671;SDS011;9983;51.114;13.788;2023-07-31T09:07:15;2.35;;;2.03;;
19671;SDS011;9983;51.114;13.788;2023-07-31T09:12:16;4.32;;;2.28;;
19671;SDS011;9983;51.114;13.788;2023-07-31T09:17:28;2.33;;;2.13;;
19671;SDS011;9983;51.114;13.788;2023-07-31T09:22:32;3.20;;;2.00;;
19671;SDS011;9983;51.114;13.788;2023-07-31T09:27:45;3.67;;;2.45;;
19671;SDS011;9983;51.114;13.788;2023-07-31T09:32:49;3.47;;;2.20;;
19671;SDS011;9983;51.114;13.788;2023-07-31T09:37:51;2.70;;;1.98;;
19671;SDS011;9983;51.114;13.788;2023-07-31T09:42:57;2.85;;;2.10;;
19671;SDS011;9983;51.114;13.788;2023-07-31T09:48:02;3.72;;;2.20;;
19671;SDS011;9983;51.114;13.788;2023-07-31T09:53:02;4.47;;;2.20;;
19671;SDS011;9983;51.114;13.788;2023-07-31T09:58:03;2.95;;;1.95;;
19671;SDS011;9983;51.114;13.788;2023-07-31T10:03:06;2.28;;;2.00;;
19671;SDS011;9983;51.114;13.788;2023-07-31T10:08:09;3.47;;;2.13;;
19671;SDS011;9983;51.114;13.788;2023-07-31T10:13:10;3.75;;;2.33;;
19671;SDS011;9983;51.114;13.788;2023-07-31T10:18:12;2.75;;;2.30;;
19671;SDS011;9983;51.114;13.788;2023-07-31T10:23:12;3.83;;;1.90;;
19671;SDS011;9983;51.114;13.788;2023-07-31T10:28:14;3.38;;;2.05;;
19671;SDS011;9983;51.114;13.788;2023-07-31T10:33:15;4.60;;;1.88;;
19671;SDS011;9983;51.114;13.788;2023-07-31T10:38:15;3.58;;;1.98;;
19671;SDS011;9983;51.114;13.788;2023-07-31T10:43:25;2.77;;;1.87;;
19671;SDS011;9983;51.114;13.788;2023-07-31T10:48:32;4.60;;;2.85;;
19671;SDS011;9983;51.114;13.788;2023-07-31T10:53:34;2.70;;;2.50;;
19671;SDS011;9983;51.114;13.788;2023-07-31T10:58:35;5.75;;;2.67;;
19671;SDS011;9983;51.114;13.788;2023-07-31T11:08:49;3.28;;;2.08;;
19671;SDS011;9983;51.114;13.788;2023-07-31T11:13:51;3.20;;;1.85;;
19671;SDS011;9983;51.114;13.788;2023-07-31T11:18:53;4.65;;;2.33;;
19671;SDS011;9983;51.114;13.788;2023-07-31T11:23:56;1.85;;;1.70;;
19671;SDS011;9983;51.114;13.788;2023-07-31T11:28:57;4.75;;;2.28;;
19671;SDS011;9983;51.114;13.788;2023-07-31T11:34:04;3.40;;;2.28;;
19671;SDS011;9983;51.114;13.788;2023-07-31T11:39:05;3.38;;;2.30;;
19671;SDS011;9983;51.114;13.788;2023-07-31T11:44:09;2.45;;;2.00;;
19671;SDS011;9983;51.114;13.788;2023-07-31T11:49:09;2.80;;;2.17;;
19671;SDS011;9983;51.114;13.788;2023-07-31T11:54:10;2.10;;;1.83;;
19671;SDS011;9983;51.114;13.788;2023-07-31T11:59:12;2.75;;;1.92;;
19671;SDS011;9983;51.114;13.788;2023-07-31T12:04:13;3.05;;;2.25;;
19671;SDS011;9983;51.114;13.788;2023-07-31T12:09:16;2.78;;;2.10;;
19671;SDS011;9983;51.114;13.788;2023-07-31T12:14:28;5.80;;;2.25;;
19671;SDS011;9983;51.114;13.788;2023-07-31T12:19:29;3.33;;;2.10;;
19671;SDS011;9983;51.114;13.788;2023-07-31T12:24:30;2.08;;;1.73;;
19671;SDS011;9983;51.114;13.788;2023-07-31T12:29:33;2.37;;;1.70;;
19671;SDS011;9983;51.114;13.788;2023-07-31T12:34:41;1.88;;;1.67;;
19671;SDS011;9983;51.114;13.788;2023-07-31T12:39:43;1.73;;;1.63;;
19671;SDS011;9983;51.114;13.788;2023-07-31T12:44:43;2.10;;;1.63;;
19671;SDS011;9983;51.114;13.788;2023-07-31T12:49:44;3.55;;;2.03;;
19671;SDS011;9983;51.114;13.788;2023-07-31T12:54:44;2.15;;;1.95;;
19671;SDS011;9983;51.114;13.788;2023-07-31T12:59:44;2.90;;;2.20;;
19671;SDS011;9983;51.114;13.788;2023-07-31T13:04:44;2.17;;;1.98;;
19671;SDS011;9983;51.114;13.788;2023-07-31T13:09:44;2.40;;;1.80;;
19671;SDS011;9983;51.114;13.788;2023-07-31T13:14:45;2.53;;;1.73;;
19671;SDS011;9983;51.114;13.788;2023-07-31T13:19:45;1.92;;;1.73;;
19671;SDS011;9983;51.114;13.788;2023-07-31T13:24:45;2.35;;;1.98;;
19671;SDS011;9983;51.114;13.788;2023-07-31T13:29:46;4.22;;;2.08;;
19671;SDS011;9983;51.114;13.788;2023-07-31T13:34:46;3.53;;;1.85;;
19671;SDS011;9983;51.114;13.788;2023-07-31T13:39:47;2.90;;;1.80;;
19671;SDS011;9983;51.114;13.788;2023-07-31T13:44:48;2.87;;;1.80;;
19671;SDS011;9983;51.114;13.788;2023-07-31T13:49:48;2.25;;;1.83;;
19671;SDS011;9983;51.114;13.788;2023-07-31T13:54:48;2.63;;;1.88;;
19671;SDS011;9983;51.114;13.788;2023-07-31T13:59:48;2.20;;;1.83;;
19671;SDS011;9983;51.114;13.788;2023-07-31T14:04:49;2.70;;;1.80;;
19671;SDS011;9983;51.114;13.788;2023-07-31T14:09:49;1.98;;;1.88;;
19671;SDS011;9983;51.114;13.788;2023-07-31T14:14:49;1.70;;;1.60;;
19671;SDS011;9983;51.114;13.788;2023-07-31T14:19:49;1.77;;;1.48;;
19671;SDS011;9983;51.114;13.788;2023-07-31T14:24:50;3.00;;;2.17;;
19671;SDS011;9983;51.114;13.788;2023-07-31T14:29:51;2.42;;;2.00;;
19671;SDS011;9983;51.114;13.788;2023-07-31T14:34:51;1.85;;;1.52;;
19671;SDS011;9983;51.114;13.788;2023-07-31T14:39:51;2.10;;;1.90;;
19671;SDS011;9983;51.114;13.788;2023-07-31T14:44:52;2.70;;;2.08;;
19671;SDS011;9983;51.114;13.788;2023-07-31T14:49:52;3.53;;;2.28;;
19671;SDS011;9983;51.114;13.788;2023-07-31T14:54:53;3.60;;;2.20;;
19671;SDS011;9983;51.114;13.788;2023-07-31T14:59:53;2.35;;;2.03;;
19671;SDS011;9983;51.114;13.788;2023-07-31T15:04:54;3.08;;;2.25;;
19671;SDS011;9983;51.114;13.788;2023-07-31T15:09:54;2.72;;;2.08;;
19671;SDS011;9983;51.114;13.788;2023-07-31T15:14:54;2.28;;;2.08;;
19671;SDS011;9983;51.114;13.788;2023-07-31T15:19:54;2.15;;;1.95;;
19671;SDS011;9983;51.114;13.788;2023-07-31T15:24:55;4.05;;;2.15;;
19671;SDS011;9983;51.114;13.788;2023-07-31T15:29:55;1.90;;;1.80;;
19671;SDS011;9983;51.114;13.788;2023-07-31T15:34:55;2.35;;;2.15;;
19671;SDS011;9983;51.114;13.788;2023-07-31T15:39:55;2.73;;;2.07;;
19671;SDS011;9983;51.114;13.788;2023-07-31T15:44:56;3.70;;;2.05;;
19671;SDS011;9983;51.114;13.788;2023-07-31T15:49:56;2.83;;;2.00;;
19671;SDS011;9983;51.114;13.788;2023-07-31T15:54:56;2.10;;;1.90;;
19671;SDS011;9983;51.114;13.788;2023-07-31T15:59:56;3.35;;;2.30;;
19671;SDS011;9983;51.114;13.788;2023-07-31T16:04:57;4.47;;;2.08;;
19671;SDS011;9983;51.114;13.788;2023-07-31T16:09:57;3.40;;;2.13;;
19671;SDS011;9983;51.114;13.788;2023-07-31T16:14:57;2.28;;;1.98;;
19671;SDS011;9983;51.114;13.788;2023-07-31T16:19:58;2.35;;;2.15;;
19671;SDS011;9983;51.114;13.788;2023-07-31T16:24:59;2.20;;;1.95;;
19671;SDS011;9983;51.114;13.788;2023-07-31T16:29:59;1.90;;;1.70;;
19671;SDS011;9983;51.114;13.788;2023-07-31T16:35:00;4.72;;;2.08;;
19671;SDS011;9983;51.114;13.788;2023-07-31T16:40:00;2.00;;;1.67;;
19671;SDS011;9983;51.114;13.788;2023-07-31T16:45:00;3.78;;;2.28;;
19671;SDS011;9983;51.114;13.788;2023-07-31T16:50:01;3.13;;;2.05;;
19671;SDS011;9983;51.114;13.788;2023-07-31T16:55:01;2.70;;;2.28;;
19671;SDS011;9983;51.114;13.788;2023-07-31T17:00:01;2.88;;;2.15;;
19671;SDS011;9983;51.114;13.788;2023-07-31T17:05:02;2.60;;;1.98;;
19671;SDS011;9983;51.114;13.788;2023-07-31T17:10:03;3.13;;;2.28;;
19671;SDS011;9983;51.114;13.788;2023-07-31T17:15:03;4.88;;;2.20;;
19671;SDS011;9983;51.114;13.788;2023-07-31T17:20:04;2.55;;;2.30;;
19671;SDS011;9983;51.114;13.788;2023-07-31T17:25:05;3.78;;;2.38;;
19671;SDS011;9983;51.114;13.788;2023-07-31T17:30:06;2.28;;;1.98;;
19671;SDS011;9983;51.114;13.788;2023-07-31T17:35:07;3.50;;;2.38;;
19671;SDS011;9983;51.114;13.788;2023-07-31T17:40:07;4.00;;;2.25;;
19671;SDS011;9983;51.114;13.788;2023-07-31T17:45:08;2.50;;;2.30;;
19671;SDS011;9983;51.114;13.788;2023-07-31T17:50:09;2.50;;;2.00;;
19671;SDS011;9983;51.114;13.788;2023-07-31T17:55:09;3.10;;;2.30;;
19671;SDS011;9983;51.114;13.788;2023-07-31T18:00:10;4.68;;;2.60;;
19671;SDS011;9983;51.114;13.788;2023-07-31T18:05:10;2.38;;;2.17;;
19671;SDS011;9983;51.114;13.788;2023-07-31T18:10:11;3.53;;;2.30;;
19671;SDS011;9983;51.114;13.788;2023-07-31T18:15:11;5.53;;;2.90;;
19671;SDS011;9983;51.114;13.788;2023-07-31T18:20:11;4.30;;;2.17;;
19671;SDS011;9983;51.114;13.788;2023-07-31T18:25:12;2.85;;;2.20;;
19671;SDS011;9983;51.114;13.788;2023-07-31T18:30:13;3.35;;;2.53;;
19671;SDS011;9983;51.114;13.788;2023-07-31T18:35:14;4.80;;;2.75;;
19671;SDS011;9983;51.114;13.788;2023-07-31T18:40:16;7.45;;;3.67;;
19671;SDS011;9983;51.114;13.788;2023-07-31T18:45:17;5.40;;;3.42;;
19671;SDS011;9983;51.114;13.788;2023-07-31T18:50:17;4.47;;;3.10;;
19671;SDS011;9983;51.114;13.788;2023-07-31T18:55:17;4.75;;;2.88;;
19671;SDS011;9983;51.114;13.788;2023-07-31T19:00:18;3.53;;;2.50;;
19671;SDS011;9983;51.114;13.788;2023-07-31T19:05:18;4.70;;;3.03;;
19671;SDS011;9983;51.114;13.788;2023-07-31T19:10:20;5.10;;;2.78;;
19671;SDS011;9983;51.114;13.788;2023-07-31T19:15:20;3.63;;;2.42;;
19671;SDS011;9983;51.114;13.788;2023-07-31T19:20:21;3.45;;;2.35;;
19671;SDS011;9983;51.114;13.788;2023-07-31T19:25:21;2.78;;;2.50;;
19671;SDS011;9983;51.114;13.788;2023-07-31T19:30:21;4.60;;;2.45;;
19671;SDS011;9983;51.114;13.788;2023-07-31T19:35:22;2.92;;;2.60;;
19671;SDS011;9983;51.114;13.788;2023-07-31T19:40:23;3.95;;;2.35;;
19671;SDS011;9983;51.114;13.788;2023-07-31T19:45:26;4.47;;;2.90;;
19671;SDS011;9983;51.114;13.788;2023-07-31T19:50:26;2.97;;;2.20;;
19671;SDS011;9983;51.114;13.788;2023-07-31T19:55:27;2.73;;;2.37;;
19671;SDS011;9983;51.114;13.788;2023-07-31T20:00:27;3.55;;;2.50;;
19671;SDS011;9983;51.114;13.788;2023-07-31T20:05:27;3.40;;;2.47;;
19671;SDS011;9983;51.114;13.788;2023-07-31T20:10:27;3.08;;;2.65;;
19671;SDS011;9983;51.114;13.788;2023-07-31T20:15:28;5.05;;;2.45;;
19671;SDS011;9983;51.114;13.788;2023-07-31T20:20:28;3.25;;;2.63;;
19671;SDS011;9983;51.114;13.788;2023-07-31T20:25:28;6.15;;;2.55;;
19671;SDS011;9983;51.114;13.788;2023-07-31T20:30:32;5.97;;;2.70;;
19671;SDS011;9983;51.114;13.788;2023-07-31T20:35:32;3.00;;;2.70;;
19671;SDS011;9983;51.114;13.788;2023-07-31T20:40:33;5.50;;;2.67;;
19671;SDS011;9983;51.114;13.788;2023-07-31T20:45:33;4.13;;;2.80;;
19671;SDS011;9983;51.114;13.788;2023-07-31T20:50:38;5.13;;;2.78;;
19671;SDS011;9983;51.114;13.788;2023-07-31T20:55:38;5.68;;;3.30;;
19671;SDS011;9983;51.114;13.788;2023-07-31T21:00:39;3.55;;;2.85;;
19671;SDS011;9983;51.114;13.788;2023-07-31T21:05:48;4.53;;;2.75;;
19671;SDS011;9983;51.114;13.788;2023-07-31T21:10:52;3.88;;;2.78;;
19671;SDS011;9983;51.114;13.788;2023-07-31T21:15:57;3.13;;;2.50;;
19671;SDS011;9983;51.114;13.788;2023-07-31T21:20:58;3.65;;;2.85;;
19671;SDS011;9983;51.114;13.788;2023-07-31T21:25:59;6.13;;;3.15;;
19671;SDS011;9983;51.114;13.788;2023-07-31T21:31:07;4.93;;;3.05;;
19671;SDS011;9983;51.114;13.788;2023-07-31T21:36:11;5.15;;;2.90;;
19671;SDS011;9983;51.114;13.788;2023-07-31T21:41:11;3.13;;;2.72;;
19671;SDS011;9983;51.114;13.788;2023-07-31T21:46:12;3.65;;;2.80;;
19671;SDS011;9983;51.114;13.788;2023-07-31T21:51:12;5.05;;;2.40;;
19671;SDS011;9983;51.114;13.788;2023-07-31T21:56:12;4.60;;;2.53;;
19671;SDS011;9983;51.114;13.788;2023-07-31T22:01:13;4.78;;;2.60;;
19671;SDS011;9983;51.114;13.788;2023-07-31T22:06:14;4.28;;;3.03;;
19671;SDS011;9983;51.114;13.788;2023-07-31T22:11:14;5.50;;;3.03;;
19671;SDS011;9983;51.114;13.788;2023-07-31T22:16:14;3.20;;;2.90;;
19671;SDS011;9983;51.114;13.788;2023-07-31T22:21:14;5.70;;;3.13;;
19671;SDS011;9983;51.114;13.788;2023-07-31T22:26:18;4.38;;;2.95;;
19671;SDS011;9983;51.114;13.788;2023-07-31T22:31:18;3.43;;;2.40;;
19671;SDS011;9983;51.114;13.788;2023-07-31T22:36:19;5.05;;;2.78;;
19671;SDS011;9983;51.114;13.788;2023-07-31T22:41:19;4.32;;;2.80;;
19671;SDS011;9983;51.114;13.788;2023-07-31T22:46:19;4.70;;;2.85;;
19671;SDS011;9983;51.114;13.788;2023-07-31T22:51:19;5.18;;;2.90;;
19671;SDS011;9983;51.114;13.788;2023-07-31T22:56:20;5.82;;;2.60;;
19671;SDS011;9983;51.114;13.788;2023-07-31T23:01:20;3.58;;;2.58;;
19671;SDS011;9983;51.114;13.788;2023-07-31T23:06:20;3.55;;;2.38;;
19671;SDS011;9983;51.114;13.788;2023-07-31T23:11:21;3.03;;;2.70;;
19671;SDS011;9983;51.114;13.788;2023-07-31T23:16:21;3.80;;;2.60;;
19671;SDS011;9983;51.114;13.788;2023-07-31T23:21:21;6.35;;;3.15;;
19671;SDS011;9983;51.114;13.788;2023-07-31T23:26:22;3.28;;;2.60;;
19671;SDS011;9983;51.114;13.788;2023-07-31T23:31:22;5.07;;;2.85;;
19671;SDS011;9983;51.114;13.788;2023-07-31T23:36:22;4.10;;;2.45;;
19671;SDS011;9983;51.114;13.788;2023-07-31T23:41:23;2.95;;;2.60;;
19671;SDS011;9983;51.114;13.788;2023-07-31T23:46:23;3.30;;;2.85;;
19671;SDS011;9983;51.114;13.788;2023-07-31T23:51:23;3.20;;;2.83;;
19671;SDS011;9983;51.114;13.788;2023-07-31T23:56:24;4.73;;;3.23;;
